createdAt,value
2018-04-28T00:02:06.515Z,7.15
2018-04-28T00:07:08.970Z,6.98
2018-04-28T00:12:11.437Z,6.76
2018-04-28T00:17:17.425Z,6.61
2018-04-28T00:22:23.654Z,6.54
2018-04-28T00:27:33.912Z,6.52
2018-04-28T00:32:37.265Z,6.48
2018-04-28T00:37:47.639Z,6.33
2018-04-28T00:43:08.817Z,6.29
2018-04-28T00:48:23.679Z,6.13
2018-04-28T00:53:26.156Z,6.05
2018-04-28T01:03:58.163Z,5.89
2018-04-28T01:09:00.776Z,5.78
2018-04-28T01:19:37.162Z,5.64
2018-04-28T01:24:40.533Z,5.46
2018-04-28T01:35:17.888Z,5.52
2018-04-28T01:40:22.198Z,5.38
2018-04-28T01:45:42.234Z,5.33
2018-04-28T01:50:58.691Z,5.31
2018-04-28T01:56:09.926Z,5.18
2018-04-28T02:07:01.146Z,4.89
2018-04-28T02:12:12.295Z,4.80
2018-04-28T02:17:14.793Z,4.79
2018-04-28T02:22:37.019Z,4.73
2018-04-28T02:27:46.172Z,4.65
2018-04-28T02:32:57.099Z,4.73
2018-04-28T02:38:01.995Z,4.80
2018-04-28T02:43:06.218Z,4.57
2018-04-28T02:48:14.640Z,4.52
2018-04-28T02:58:56.741Z,4.36
2018-04-28T03:04:02.009Z,4.37
2018-04-28T03:09:05.331Z,4.28
2018-04-28T03:14:07.837Z,4.20
2018-04-28T03:19:12.703Z,4.17
2018-04-28T03:24:29.344Z,4.05
2018-04-28T03:29:34.747Z,4.05
2018-04-28T03:34:40.042Z,4.12
2018-04-28T03:39:45.146Z,3.99
2018-04-28T03:44:50.011Z,3.96
2018-04-28T03:49:52.464Z,4.06
2018-04-28T03:54:55.679Z,4.20
2018-04-28T04:00:10.083Z,4.41
2018-04-28T04:05:15.540Z,4.73
2018-04-28T04:10:31.881Z,5.06
2018-04-28T04:15:41.182Z,5.28
2018-04-28T04:20:52.459Z,5.66
2018-04-28T04:26:13.818Z,5.98
2018-04-28T04:31:19.922Z,6.42
2018-04-28T04:42:03.477Z,7.37
2018-04-28T04:53:21.604Z,9.25
2018-04-28T05:03:57.280Z,16.70
2018-04-28T05:09:39.331Z,18.10
2018-04-28T05:14:53.860Z,19.89
2018-04-28T05:20:08.321Z,17.91
2018-04-28T05:25:33.133Z,20.29
2018-04-28T05:30:36.591Z,21.56
2018-04-28T05:36:00.925Z,18.19
2018-04-28T05:41:15.373Z,15.96
2018-04-28T05:52:15.423Z,16.08
2018-04-28T05:57:36.648Z,15.68
2018-04-28T06:02:59.657Z,20.33
2018-04-28T06:13:45.946Z,21.39
2018-04-28T06:18:52.021Z,18.55
2018-04-28T06:23:54.525Z,17.88
2018-04-28T06:28:57.061Z,17.40
2018-04-28T06:33:59.548Z,17.37
2018-04-28T06:39:02.032Z,17.22
2018-04-28T06:44:04.551Z,17.38
2018-04-28T06:49:07.036Z,17.08
2018-04-28T06:54:09.522Z,17.39
2018-04-28T06:59:11.998Z,17.87
2018-04-28T07:04:14.508Z,18.11
2018-04-28T07:09:16.987Z,18.12
2018-04-28T07:14:19.440Z,18.20
2018-04-28T07:19:21.971Z,18.19
2018-04-28T07:24:24.489Z,18.15
2018-04-28T07:29:27.913Z,18.19
2018-04-28T07:34:30.535Z,18.02
2018-04-28T07:39:33.035Z,18.09
2018-04-28T07:44:35.602Z,18.01
2018-04-28T07:49:38.121Z,18.09
2018-04-28T07:54:40.598Z,18.08
2018-04-28T07:59:43.070Z,18.36
2018-04-28T08:04:45.545Z,18.44
2018-04-28T08:09:48.052Z,18.47
2018-04-28T08:14:50.512Z,18.66
2018-04-28T08:19:53.019Z,18.69
2018-04-28T08:24:55.486Z,18.98
2018-04-28T08:29:58.027Z,19.28
2018-04-28T08:35:00.569Z,19.88
2018-04-28T08:40:03.144Z,20.38
2018-04-28T08:45:06.029Z,20.69
2018-04-28T08:50:08.573Z,21.07
2018-04-28T08:55:11.183Z,21.27
2018-04-28T09:00:25.629Z,24.16
2018-04-28T09:05:28.150Z,25.37
2018-04-28T09:10:30.855Z,26.34
2018-04-28T09:15:33.570Z,28.18
2018-04-28T09:20:36.140Z,29.17
2018-04-28T09:25:38.613Z,26.58
2018-04-28T09:30:41.082Z,29.46
2018-04-28T09:35:43.601Z,29.95
2018-04-28T09:40:46.094Z,30.21
2018-04-28T09:45:48.571Z,29.40
2018-04-28T09:50:51.060Z,29.78
2018-04-28T09:55:53.788Z,30.81
2018-04-28T10:00:56.361Z,29.23
2018-04-28T10:05:58.900Z,29.39
2018-04-28T10:11:01.350Z,29.39
2018-04-28T10:16:04.048Z,29.32
2018-04-28T10:21:06.645Z,29.04
2018-04-28T10:26:09.180Z,28.79
2018-04-28T10:31:11.653Z,29.22
2018-04-28T10:36:14.215Z,29.40
2018-04-28T10:41:16.703Z,29.43
2018-04-28T10:46:19.191Z,28.24
2018-04-28T10:51:21.689Z,27.54
2018-04-28T10:56:24.176Z,28.10
2018-04-28T11:01:26.773Z,27.50
2018-04-28T11:06:29.320Z,26.52
2018-04-28T11:11:31.841Z,26.80
2018-04-28T11:16:34.345Z,26.42
2018-04-28T11:21:36.862Z,27.06
2018-04-28T11:26:39.326Z,26.81
2018-04-28T11:31:41.872Z,26.04
2018-04-28T11:36:44.362Z,25.93
2018-04-28T11:41:46.828Z,26.57
2018-04-28T11:46:49.315Z,26.36
2018-04-28T11:51:51.847Z,26.20
2018-04-28T11:56:54.279Z,25.54
2018-04-28T12:01:56.789Z,25.91
2018-04-28T12:06:59.500Z,26.17
2018-04-28T12:12:02.037Z,26.33
2018-04-28T12:17:04.749Z,24.87
2018-04-28T12:22:07.204Z,25.15
2018-04-28T12:27:09.680Z,25.18
2018-04-28T12:32:12.133Z,25.56
2018-04-28T12:37:14.613Z,24.91
2018-04-28T12:42:17.086Z,25.45
2018-04-28T12:47:19.604Z,25.12
2018-04-28T12:52:22.073Z,25.08
2018-04-28T12:57:24.545Z,25.56
2018-04-28T13:02:27.081Z,25.24
2018-04-28T13:07:29.904Z,25.22
2018-04-28T13:12:32.459Z,25.59
2018-04-28T13:17:34.981Z,26.10
2018-04-28T13:22:37.486Z,26.34
2018-04-28T13:27:39.985Z,26.20
2018-04-28T13:32:42.449Z,25.72
2018-04-28T13:37:44.949Z,25.92
2018-04-28T13:42:47.426Z,25.87
2018-04-28T13:47:49.893Z,25.71
2018-04-28T13:52:52.452Z,25.75
2018-04-28T13:57:54.940Z,25.65
2018-04-28T14:02:57.442Z,25.55
2018-04-28T14:07:59.972Z,25.41
2018-04-28T14:13:02.503Z,25.44
2018-04-28T14:18:05.024Z,25.31
2018-04-28T14:23:07.548Z,25.09
2018-04-28T14:28:10.034Z,25.35
2018-04-28T14:33:12.512Z,25.39
2018-04-28T14:38:15.006Z,25.16
2018-04-28T14:43:17.518Z,25.40
2018-04-28T14:48:20.252Z,25.60
2018-04-28T14:53:22.736Z,25.73
2018-04-28T14:58:25.184Z,25.67
2018-04-28T15:03:27.667Z,25.51
2018-04-28T15:08:30.153Z,25.38
2018-04-28T15:13:32.706Z,25.49
2018-04-28T15:18:35.157Z,25.82
2018-04-28T15:23:37.629Z,26.19
2018-04-28T15:28:40.224Z,25.92
2018-04-28T15:33:42.710Z,25.73
2018-04-28T15:38:45.232Z,25.52
2018-04-28T15:43:47.748Z,25.62
2018-04-28T15:48:50.235Z,25.61
2018-04-28T15:53:52.702Z,25.56
2018-04-28T15:58:55.160Z,25.60
2018-04-28T16:03:57.619Z,25.55
2018-04-28T16:09:00.100Z,25.47
2018-04-28T16:14:02.548Z,25.02
2018-04-28T16:19:05.023Z,23.92
2018-04-28T16:24:07.480Z,23.35
2018-04-28T16:29:09.963Z,22.97
2018-04-28T16:34:12.480Z,22.80
2018-04-28T16:39:14.952Z,22.63
2018-04-28T16:44:17.501Z,22.53
2018-04-28T16:49:19.975Z,22.27
2018-04-28T16:54:22.476Z,22.13
2018-04-28T16:59:39.161Z,21.96
2018-04-28T17:04:42.773Z,21.69
2018-04-28T17:09:45.435Z,21.51
2018-04-28T17:14:55.893Z,21.29
2018-04-28T17:19:58.875Z,21.04
2018-04-28T17:25:01.412Z,20.93
2018-04-28T17:30:03.832Z,20.87
2018-04-28T17:35:06.442Z,20.83
2018-04-28T17:40:09.515Z,20.80
2018-04-28T17:45:12.140Z,20.67
2018-04-28T17:50:14.682Z,20.56
2018-04-28T17:55:17.159Z,20.27
2018-04-28T18:00:20.420Z,19.96
2018-04-28T18:05:22.899Z,19.67
2018-04-28T18:10:25.380Z,19.48
2018-04-28T18:15:27.894Z,19.31
2018-04-28T18:20:30.416Z,18.93
2018-04-28T18:25:32.981Z,18.61
2018-04-28T18:30:35.519Z,18.46
2018-04-28T18:35:38.007Z,18.47
2018-04-28T18:40:41.252Z,18.33
2018-04-28T18:45:43.922Z,18.16
2018-04-28T18:50:46.511Z,18.11
2018-04-28T18:55:49.197Z,18.14
2018-04-28T19:00:55.836Z,18.16
2018-04-28T19:05:59.707Z,18.13
2018-04-28T19:11:03.070Z,18.17
2018-04-28T19:16:07.432Z,18.16
2018-04-28T19:21:12.986Z,18.20
2018-04-28T19:26:18.144Z,17.98
2018-04-28T19:31:22.428Z,17.81
2018-04-28T19:36:24.900Z,17.64
2018-04-28T19:41:32.889Z,17.57
2018-04-28T19:46:35.915Z,17.38
2018-04-28T19:51:39.586Z,17.24
2018-04-28T19:56:44.083Z,17.13
2018-04-28T20:01:48.231Z,17.03
2018-04-28T20:06:51.712Z,17.08
2018-04-28T20:11:54.623Z,17.07
2018-04-28T20:16:57.670Z,16.92
2018-04-28T20:22:12.000Z,16.85
2018-04-28T20:27:14.862Z,16.86
2018-04-28T20:32:17.960Z,16.90
2018-04-28T20:37:20.940Z,16.90
2018-04-28T20:42:23.546Z,16.91
2018-04-28T20:47:28.632Z,16.86
2018-04-28T20:52:31.332Z,16.82
2018-04-28T20:57:33.809Z,16.79
2018-04-28T21:02:36.310Z,16.66
2018-04-28T21:07:38.815Z,16.53
2018-04-28T21:12:41.307Z,16.46
2018-04-28T21:17:43.870Z,16.38
2018-04-28T21:22:46.343Z,16.12
2018-04-28T21:27:48.800Z,16.06
2018-04-28T21:32:51.287Z,15.73
2018-04-28T21:37:53.846Z,15.63
2018-04-28T21:42:56.340Z,15.46
2018-04-28T21:47:58.826Z,15.22
2018-04-28T21:53:01.387Z,15.04
2018-04-28T21:58:03.889Z,14.76
2018-04-28T22:03:06.335Z,14.49
2018-04-28T22:08:08.838Z,14.43
2018-04-28T22:13:11.363Z,14.42
2018-04-28T22:18:13.897Z,14.38
2018-04-28T22:23:16.452Z,14.32
2018-04-28T22:28:18.982Z,14.25
2018-04-28T22:33:21.538Z,14.21
2018-04-28T22:38:24.029Z,14.06
2018-04-28T22:43:26.501Z,13.95
2018-04-28T22:48:28.977Z,13.89
2018-04-28T22:53:32.302Z,13.78
2018-04-28T22:58:34.780Z,13.68
2018-04-28T23:03:37.318Z,13.72
2018-04-28T23:08:39.792Z,13.59
2018-04-28T23:13:42.305Z,13.45
2018-04-28T23:18:44.902Z,13.39
2018-04-28T23:23:47.497Z,13.49
2018-04-28T23:28:49.982Z,13.42
2018-04-28T23:33:52.466Z,13.36
2018-04-28T23:38:54.943Z,13.11
2018-04-28T23:43:57.403Z,12.89
2018-04-28T23:48:59.870Z,12.56
2018-04-28T23:54:02.448Z,12.41
2018-04-28T23:59:04.968Z,12.53
